createdAt,value
2018-09-05T00:00:11.545Z,31.73
2018-09-05T00:02:40.796Z,38.77
2018-09-05T00:05:10.508Z,28.42
2018-09-05T00:07:39.729Z,29.95
2018-09-05T00:10:08.989Z,27.87
2018-09-05T00:12:38.205Z,34.40
2018-09-05T00:15:08.365Z,33.83
2018-09-05T00:17:37.574Z,26.03
2018-09-05T00:20:06.946Z,35.90
2018-09-05T00:22:36.293Z,29.70
2018-09-05T00:25:05.619Z,28.97
2018-09-05T00:27:34.920Z,37.57
2018-09-05T00:30:34.789Z,30.50
2018-09-05T00:33:03.981Z,31.63
2018-09-05T00:35:33.138Z,29.83
2018-09-05T00:38:02.429Z,29.30
2018-09-05T00:40:31.718Z,36.37
2018-09-05T00:43:00.971Z,27.73
2018-09-05T00:45:30.219Z,31.73
2018-09-05T00:47:59.384Z,30.67
2018-09-05T00:50:28.604Z,37.73
2018-09-05T00:52:57.910Z,37.27
2018-09-05T00:55:27.103Z,32.63
2018-09-05T00:57:56.407Z,30.70
2018-09-05T01:00:25.682Z,33.53
2018-09-05T01:02:55.277Z,36.47
2018-09-05T01:05:24.478Z,30.70
2018-09-05T01:07:53.689Z,41.23
2018-09-05T01:10:22.893Z,33.30
2018-09-05T01:12:52.151Z,32.38
2018-09-05T01:15:21.347Z,31.40
2018-09-05T01:17:50.554Z,32.00
2018-09-05T01:20:19.807Z,28.87
2018-09-05T01:22:49.105Z,28.60
2018-09-05T01:25:18.319Z,33.18
2018-09-05T01:27:47.692Z,33.70
2018-09-05T01:30:16.970Z,27.20
2018-09-05T01:32:46.165Z,28.13
2018-09-05T01:35:15.393Z,29.18
2018-09-05T01:37:44.666Z,30.30
2018-09-05T01:40:13.915Z,31.83
2018-09-05T01:42:43.081Z,31.90
2018-09-05T01:45:12.316Z,33.80
2018-09-05T01:47:41.720Z,32.43
2018-09-05T01:50:10.954Z,32.13
2018-09-05T01:52:40.508Z,31.83
2018-09-05T01:55:09.827Z,32.90
2018-09-05T01:57:39.087Z,36.80
2018-09-05T02:00:12.737Z,36.27
2018-09-05T02:02:41.932Z,38.60
2018-09-05T02:05:11.314Z,41.33
2018-09-05T02:07:40.521Z,44.30
2018-09-05T02:10:09.707Z,40.30
2018-09-05T02:12:38.918Z,40.70
2018-09-05T02:15:08.248Z,41.80
2018-09-05T02:17:37.421Z,47.40
2018-09-05T02:20:06.645Z,53.87
2018-09-05T02:22:35.913Z,55.00
2018-09-05T02:25:05.199Z,64.93
2018-09-05T02:27:34.547Z,61.40
2018-09-05T02:30:03.885Z,58.10
2018-09-05T02:32:33.060Z,58.90
2018-09-05T02:35:02.261Z,48.00
2018-09-05T02:37:31.853Z,42.83
2018-09-05T02:40:01.100Z,39.43
2018-09-05T02:42:30.413Z,42.90
2018-09-05T02:44:59.689Z,47.40
2018-09-05T02:47:28.883Z,52.40
2018-09-05T02:49:58.043Z,47.67
2018-09-05T02:52:27.322Z,58.17
2018-09-05T02:54:56.556Z,60.57
2018-09-05T02:57:25.809Z,63.10
2018-09-05T02:59:55.052Z,50.80
2018-09-05T03:02:24.351Z,42.77
2018-09-05T03:04:53.591Z,41.97
2018-09-05T03:07:23.016Z,38.02
2018-09-05T03:09:52.460Z,37.57
2018-09-05T03:12:22.546Z,46.03
2018-09-05T03:14:52.679Z,34.00
2018-09-05T03:17:22.071Z,37.78
2018-09-05T03:19:51.266Z,44.77
2018-09-05T03:22:20.509Z,67.03
2018-09-05T03:24:49.786Z,68.77
2018-09-05T03:27:18.981Z,71.30
2018-09-05T03:29:48.174Z,83.33
2018-09-05T03:32:17.511Z,74.82
2018-09-05T03:34:46.633Z,85.67
2018-09-05T03:37:15.877Z,89.97
2018-09-05T03:39:45.069Z,93.07
2018-09-05T03:42:14.234Z,93.23
2018-09-05T03:44:43.443Z,81.87
2018-09-05T03:47:12.623Z,93.80
2018-09-05T03:49:41.832Z,90.00
2018-09-05T03:52:11.082Z,110.53
2018-09-05T03:54:40.350Z,89.13
2018-09-05T03:57:09.963Z,100.43
2018-09-05T03:59:39.215Z,86.70
2018-09-05T04:02:08.430Z,70.53
2018-09-05T04:04:37.658Z,60.03
2018-09-05T04:07:07.031Z,60.00
2018-09-05T04:09:36.204Z,64.80
2018-09-05T04:12:05.475Z,66.30
2018-09-05T04:14:34.673Z,62.17
2018-09-05T04:17:03.911Z,50.30
2018-09-05T04:19:33.162Z,47.87
2018-09-05T04:22:02.452Z,48.43
2018-09-05T04:24:31.577Z,54.30
2018-09-05T04:27:00.836Z,52.30
2018-09-05T04:29:30.291Z,62.53
2018-09-05T04:31:59.466Z,49.90
2018-09-05T04:34:28.673Z,41.90
2018-09-05T04:36:57.927Z,48.67
2018-09-05T04:39:27.151Z,41.48
2018-09-05T04:41:56.398Z,54.57
2018-09-05T04:44:25.564Z,45.67
2018-09-05T04:46:54.748Z,51.67
2018-09-05T04:49:24.213Z,44.33
2018-09-05T04:51:53.445Z,50.67
2018-09-05T04:54:22.633Z,44.50
2018-09-05T04:56:51.932Z,47.20
2018-09-05T04:59:21.182Z,45.13
2018-09-05T05:01:50.377Z,41.83
2018-09-05T05:04:19.607Z,43.93
2018-09-05T05:06:48.862Z,44.37
2018-09-05T05:09:18.082Z,43.08
2018-09-05T05:11:47.325Z,38.10
2018-09-05T05:14:16.675Z,48.80
2018-09-05T05:16:45.873Z,46.13
2018-09-05T05:19:15.138Z,41.53
2018-09-05T05:21:44.353Z,47.83
2018-09-05T05:24:13.779Z,44.37
2018-09-05T05:26:43.065Z,44.33
2018-09-05T05:29:12.382Z,43.40
2018-09-05T05:31:42.266Z,42.13
2018-09-05T05:34:11.515Z,41.57
2018-09-05T05:36:40.883Z,45.13
2018-09-05T05:39:11.573Z,40.53
2018-09-05T05:41:40.750Z,33.40
2018-09-05T05:44:09.994Z,46.60
2018-09-05T05:46:39.219Z,39.60
2018-09-05T05:49:08.555Z,48.10
2018-09-05T05:51:37.766Z,42.50
2018-09-05T05:54:06.992Z,55.33
2018-09-05T05:56:36.214Z,50.70
2018-09-05T05:59:05.473Z,54.13
2018-09-05T06:01:34.795Z,59.07
2018-09-05T06:04:03.984Z,57.23
2018-09-05T06:06:33.205Z,63.90
2018-09-05T06:09:02.503Z,61.07
2018-09-05T06:11:31.758Z,55.13
2018-09-05T06:14:00.993Z,73.03
2018-09-05T06:16:30.186Z,79.60
2018-09-05T06:18:59.582Z,65.20
2018-09-05T06:21:28.794Z,65.85
2018-09-05T06:23:58.116Z,76.62
2018-09-05T06:26:27.324Z,67.73
2018-09-05T06:28:56.639Z,74.27
2018-09-05T06:31:25.842Z,70.65
2018-09-05T06:33:55.088Z,77.20
2018-09-05T06:36:24.290Z,73.43
2018-09-05T06:38:53.500Z,73.37
2018-09-05T06:41:22.697Z,76.12
2018-09-05T06:43:51.912Z,72.03
2018-09-05T06:46:21.164Z,71.90
2018-09-05T06:48:50.399Z,77.07
2018-09-05T06:51:19.643Z,80.20
2018-09-05T06:53:48.757Z,90.80
2018-09-05T06:56:17.982Z,85.03
2018-09-05T06:58:47.242Z,77.27
2018-09-05T07:01:16.452Z,73.60
2018-09-05T07:03:45.777Z,70.37
2018-09-05T07:06:15.026Z,77.17
2018-09-05T07:08:44.246Z,74.07
2018-09-05T07:11:13.446Z,70.97
2018-09-05T07:13:42.984Z,66.17
2018-09-05T07:16:12.251Z,67.73
2018-09-05T07:18:41.873Z,78.50
2018-09-05T07:21:12.070Z,72.92
2018-09-05T07:23:41.266Z,68.83
2018-09-05T07:26:10.490Z,65.30
2018-09-05T07:28:39.686Z,70.08
2018-09-05T07:31:08.983Z,73.10
2018-09-05T07:33:38.170Z,75.33
2018-09-05T07:36:07.348Z,69.60
2018-09-05T07:38:38.106Z,71.23
2018-09-05T07:41:07.620Z,71.17
2018-09-05T07:43:37.335Z,71.75
2018-09-05T07:46:06.621Z,72.10
2018-09-05T07:48:35.798Z,75.73
2018-09-05T07:51:05.188Z,72.70
2018-09-05T07:53:34.416Z,64.17
2018-09-05T07:56:03.601Z,60.30
2018-09-05T07:58:32.841Z,75.53
2018-09-05T08:01:02.146Z,63.70
2018-09-05T08:03:31.382Z,53.90
2018-09-05T08:06:00.853Z,67.83
2018-09-05T08:08:30.145Z,56.27
2018-09-05T08:10:59.291Z,59.23
2018-09-05T08:13:28.477Z,56.17
2018-09-05T08:15:57.641Z,56.73
2018-09-05T08:18:26.876Z,59.33
2018-09-05T08:20:56.131Z,61.40
2018-09-05T08:23:25.349Z,60.55
2018-09-05T08:25:54.594Z,54.37
2018-09-05T08:28:23.786Z,56.13
2018-09-05T08:30:52.978Z,59.37
2018-09-05T08:33:22.136Z,56.58
2018-09-05T08:35:51.628Z,63.07
2018-09-05T08:38:20.624Z,49.17
2018-09-05T08:40:50.679Z,55.87
2018-09-05T08:43:19.965Z,55.37
2018-09-05T08:45:49.447Z,59.67
2018-09-05T08:48:33.921Z,56.48
2018-09-05T08:51:03.410Z,56.03
2018-09-05T08:53:32.782Z,57.00
2018-09-05T08:56:02.766Z,55.00
2018-09-05T08:58:31.957Z,58.07
2018-09-05T09:01:01.194Z,58.10
2018-09-05T09:03:30.456Z,57.50
2018-09-05T09:05:59.657Z,60.23
2018-09-05T09:08:28.849Z,55.97
2018-09-05T09:10:58.066Z,54.77
2018-09-05T09:13:27.436Z,55.58
2018-09-05T09:15:56.684Z,61.70
2018-09-05T09:18:26.010Z,49.13
2018-09-05T09:20:55.201Z,56.93
2018-09-05T09:23:24.454Z,52.03
2018-09-05T09:25:53.652Z,55.53
2018-09-05T09:28:23.008Z,51.03
2018-09-05T09:30:52.158Z,63.53
2018-09-05T09:33:21.410Z,50.33
2018-09-05T09:35:50.632Z,46.77
2018-09-05T09:38:20.463Z,49.40
2018-09-05T09:40:49.688Z,56.90
2018-09-05T09:43:18.912Z,55.58
2018-09-05T09:45:48.169Z,55.93
2018-09-05T09:48:17.382Z,48.67
2018-09-05T09:50:46.590Z,51.90
2018-09-05T09:53:15.829Z,50.52
2018-09-05T09:55:45.061Z,59.40
2018-09-05T09:58:14.263Z,47.47
2018-09-05T10:00:48.667Z,56.47
2018-09-05T10:03:23.129Z,48.50
2018-09-05T10:05:57.556Z,44.27
2018-09-05T10:08:33.173Z,50.43
2018-09-05T10:11:06.603Z,43.40
2018-09-05T10:13:40.972Z,44.98
2018-09-05T10:16:15.434Z,48.43
2018-09-05T10:18:46.546Z,49.67
2018-09-05T10:21:15.735Z,52.90
2018-09-05T10:23:45.047Z,46.33
2018-09-05T10:26:14.285Z,44.57
2018-09-05T10:28:43.492Z,47.23
2018-09-05T10:31:12.740Z,58.23
2018-09-05T10:33:42.437Z,50.43
2018-09-05T10:36:11.701Z,46.83
2018-09-05T10:38:40.964Z,51.83
2018-09-05T10:41:11.085Z,49.85
2018-09-05T10:43:40.635Z,44.60
2018-09-05T10:46:09.881Z,58.33
2018-09-05T10:48:39.124Z,58.50
2018-09-05T10:51:08.662Z,49.73
2018-09-05T10:53:37.970Z,49.93
2018-09-05T10:56:07.223Z,43.57
2018-09-05T10:58:36.473Z,43.27
2018-09-05T11:01:05.955Z,44.60
2018-09-05T11:03:35.159Z,46.73
2018-09-05T11:06:04.434Z,47.87
2018-09-05T11:08:33.735Z,41.47
2018-09-05T11:11:02.980Z,42.40
2018-09-05T11:13:32.189Z,48.83
2018-09-05T11:16:01.406Z,42.65
2018-09-05T11:18:30.610Z,37.03
2018-09-05T11:20:59.957Z,36.67
2018-09-05T11:23:29.406Z,39.60
2018-09-05T11:25:58.603Z,41.27
2018-09-05T11:28:27.881Z,41.47
2018-09-05T11:30:57.188Z,37.93
2018-09-05T11:33:26.558Z,36.23
2018-09-05T11:35:55.803Z,36.97
2018-09-05T11:38:25.031Z,30.13
2018-09-05T11:40:54.393Z,35.13
2018-09-05T11:43:23.847Z,33.47
2018-09-05T11:45:53.161Z,30.50
2018-09-05T11:48:22.510Z,33.73
2018-09-05T11:50:51.793Z,43.40
2018-09-05T11:53:21.025Z,33.83
2018-09-05T11:55:50.765Z,39.53
2018-09-05T11:58:20.558Z,33.80
2018-09-05T12:00:49.884Z,42.23
2018-09-05T12:03:19.170Z,44.40
2018-09-05T12:05:48.357Z,31.37
2018-09-05T12:08:17.561Z,46.93
2018-09-05T12:10:47.620Z,39.67
2018-09-05T12:13:17.017Z,32.63
2018-09-05T12:15:46.316Z,30.15
2018-09-05T12:18:15.625Z,33.83
2018-09-05T12:20:44.838Z,33.10
2018-09-05T12:23:14.104Z,37.93
2018-09-05T12:25:43.422Z,30.03
2018-09-05T12:28:12.609Z,30.83
2018-09-05T12:30:41.949Z,29.40
2018-09-05T12:33:11.504Z,22.23
2018-09-05T12:35:41.252Z,25.80
2018-09-05T12:38:10.827Z,33.37
2018-09-05T12:40:40.151Z,35.50
2018-09-05T12:43:09.586Z,23.93
2018-09-05T12:45:38.830Z,24.33
2018-09-05T12:48:08.182Z,18.57
2018-09-05T12:50:37.531Z,20.53
2018-09-05T12:53:07.069Z,20.30
2018-09-05T12:55:36.432Z,16.33
2018-09-05T12:58:05.884Z,16.30
2018-09-05T13:00:35.251Z,15.43
2018-09-05T13:03:05.740Z,18.70
2018-09-05T13:05:35.102Z,42.27
2018-09-05T13:08:04.293Z,17.67
2018-09-05T13:10:33.757Z,21.20
2018-09-05T13:13:03.079Z,18.43
2018-09-05T13:15:32.483Z,20.03
2018-09-05T13:18:03.271Z,22.80
2018-09-05T13:20:32.832Z,16.90
2018-09-05T13:23:03.105Z,16.53
2018-09-05T13:25:32.307Z,31.90
2018-09-05T13:28:01.601Z,27.07
2018-09-05T13:30:34.680Z,16.30
2018-09-05T13:33:04.672Z,22.40
2018-09-05T13:35:34.026Z,15.83
2018-09-05T13:38:03.388Z,16.47
2018-09-05T13:40:32.644Z,17.00
2018-09-05T13:43:01.861Z,13.83
2018-09-05T13:45:31.314Z,14.30
2018-09-05T13:48:00.585Z,16.63
2018-09-05T13:50:29.933Z,19.53
2018-09-05T13:52:59.254Z,36.87
2018-09-05T13:55:28.523Z,15.75
2018-09-05T13:57:57.779Z,17.00
2018-09-05T14:00:27.208Z,14.83
2018-09-05T14:02:56.527Z,21.47
2018-09-05T14:05:25.815Z,16.73
2018-09-05T14:07:55.119Z,17.97
2018-09-05T14:10:24.574Z,16.90
2018-09-05T14:12:54.224Z,14.20
2018-09-05T14:15:23.523Z,13.80
2018-09-05T14:17:52.763Z,17.47
2018-09-05T14:20:22.083Z,17.60
2018-09-05T14:22:51.351Z,19.50
2018-09-05T14:25:20.614Z,16.07
2018-09-05T14:27:49.982Z,15.03
2018-09-05T14:30:19.237Z,16.20
2018-09-05T14:32:48.489Z,15.93
2018-09-05T14:35:17.763Z,18.02
2018-09-05T14:37:47.079Z,15.10
2018-09-05T14:40:16.956Z,16.03
2018-09-05T14:42:46.777Z,12.70
2018-09-05T14:45:16.163Z,13.62
2018-09-05T14:47:45.392Z,11.43
2018-09-05T14:50:14.612Z,16.00
2018-09-05T14:52:43.839Z,15.43
2018-09-05T14:55:13.159Z,11.20
2018-09-05T14:57:42.432Z,11.80
2018-09-05T15:00:11.684Z,11.27
2018-09-05T15:02:40.922Z,11.77
2018-09-05T15:05:10.189Z,11.30
2018-09-05T15:07:42.557Z,10.80
2018-09-05T15:10:11.858Z,10.10
2018-09-05T15:12:41.158Z,11.37
2018-09-05T15:15:10.471Z,11.27
2018-09-05T15:17:39.850Z,10.53
2018-09-05T15:20:10.037Z,13.17
2018-09-05T15:22:40.013Z,14.37
2018-09-05T15:25:09.547Z,14.50
2018-09-05T15:27:39.027Z,18.53
2018-09-05T15:30:09.663Z,13.33
2018-09-05T15:32:38.908Z,16.70
2018-09-05T15:35:08.302Z,12.63
2018-09-05T15:37:37.634Z,17.83
2018-09-05T15:40:06.995Z,11.37
2018-09-05T15:42:36.293Z,15.00
2018-09-05T15:45:05.973Z,13.53
2018-09-05T15:47:35.352Z,17.97
2018-09-05T15:50:04.895Z,11.97
2018-09-05T15:52:34.121Z,23.22
2018-09-05T15:55:03.406Z,11.97
2018-09-05T15:57:32.746Z,12.63
2018-09-05T16:00:02.650Z,16.30
2018-09-05T16:02:31.973Z,12.33
2018-09-05T16:05:01.181Z,11.40
2018-09-05T16:07:30.489Z,12.70
2018-09-05T16:09:59.823Z,24.20
2018-09-05T16:12:29.114Z,15.80
2018-09-05T16:14:58.384Z,12.60
2018-09-05T16:17:27.639Z,12.78
2018-09-05T16:19:57.041Z,12.13
2018-09-05T16:22:26.325Z,14.73
2018-09-05T16:24:55.655Z,12.53
2018-09-05T16:27:24.956Z,11.53
2018-09-05T16:29:54.255Z,12.57
2018-09-05T16:32:23.493Z,17.70
2018-09-05T16:34:52.833Z,12.70
2018-09-05T16:37:22.150Z,13.60
2018-09-05T16:39:51.358Z,14.80
2018-09-05T16:42:20.689Z,12.63
2018-09-05T16:44:50.080Z,12.03
2018-09-05T16:47:19.461Z,12.63
2018-09-05T16:49:48.742Z,12.47
2018-09-05T16:52:18.588Z,15.70
2018-09-05T16:54:47.851Z,13.97
2018-09-05T16:57:17.115Z,13.13
2018-09-05T16:59:46.630Z,15.40
2018-09-05T17:02:15.875Z,13.27
2018-09-05T17:04:45.181Z,12.37
2018-09-05T17:07:14.487Z,17.57
2018-09-05T17:09:43.814Z,17.80
2018-09-05T17:12:13.042Z,15.17
2018-09-05T17:14:42.514Z,16.17
2018-09-05T17:17:12.233Z,13.63
2018-09-05T17:19:41.963Z,28.63
2018-09-05T17:22:11.201Z,15.97
2018-09-05T17:24:40.398Z,16.50
2018-09-05T17:27:09.839Z,14.55
2018-09-05T17:29:39.090Z,18.90
2018-09-05T17:32:08.374Z,14.97
2018-09-05T17:34:37.690Z,16.53
2018-09-05T17:37:07.330Z,22.20
2018-09-05T17:39:36.600Z,15.97
2018-09-05T17:42:05.968Z,15.50
2018-09-05T17:44:35.303Z,22.47
2018-09-05T17:47:04.651Z,19.10
2018-09-05T17:49:33.954Z,17.60
2018-09-05T17:52:03.226Z,21.00
2018-09-05T17:54:32.721Z,17.23
2018-09-05T17:57:01.960Z,22.40
2018-09-05T17:59:31.229Z,26.40
2018-09-05T18:02:01.837Z,18.53
2018-09-05T18:04:31.487Z,19.03
2018-09-05T18:07:00.784Z,23.37
2018-09-05T18:09:30.219Z,20.60
2018-09-05T18:11:59.725Z,18.23
2018-09-05T18:14:29.102Z,23.40
2018-09-05T18:16:58.333Z,20.90
2018-09-05T18:19:27.529Z,29.80
2018-09-05T18:21:57.111Z,20.33
2018-09-05T18:24:26.376Z,31.80
2018-09-05T18:26:55.964Z,29.03
2018-09-05T18:29:25.444Z,23.40
2018-09-05T18:31:54.643Z,22.60
2018-09-05T18:34:23.974Z,18.67
2018-09-05T18:36:53.448Z,22.07
2018-09-05T18:39:22.794Z,25.52
2018-09-05T18:41:51.997Z,19.65
2018-09-05T18:44:21.530Z,18.97
2018-09-05T18:46:50.773Z,21.80
2018-09-05T18:49:20.460Z,17.42
2018-09-05T18:51:49.940Z,25.27
2018-09-05T18:54:19.165Z,21.17
2018-09-05T18:56:48.575Z,37.83
2018-09-05T18:59:17.898Z,26.27
2018-09-05T19:01:47.178Z,24.03
2018-09-05T19:04:16.573Z,25.03
2018-09-05T19:06:45.888Z,23.73
2018-09-05T19:09:15.077Z,28.63
2018-09-05T19:11:44.361Z,27.13
2018-09-05T19:14:13.689Z,25.23
2018-09-05T19:16:42.813Z,23.33
2018-09-05T19:19:13.057Z,26.13
2018-09-05T19:21:42.298Z,23.00
2018-09-05T19:24:11.581Z,23.27
2018-09-05T19:26:40.862Z,20.70
2018-09-05T19:29:10.179Z,21.43
2018-09-05T19:31:39.557Z,19.33
2018-09-05T19:34:09.564Z,20.50
2018-09-05T19:36:38.846Z,21.73
2018-09-05T19:39:09.761Z,27.70
2018-09-05T19:41:39.096Z,24.27
2018-09-05T19:44:08.481Z,25.57
2018-09-05T19:46:37.774Z,36.40
2018-09-05T19:49:07.277Z,36.97
2018-09-05T19:51:37.754Z,36.00
2018-09-05T19:54:07.091Z,45.13
2018-09-05T19:56:36.329Z,33.93
2018-09-05T19:59:05.729Z,41.20
2018-09-05T20:01:35.020Z,32.37
2018-09-05T20:04:04.804Z,34.53
2018-09-05T20:06:34.102Z,52.95
2018-09-05T20:09:04.004Z,33.60
2018-09-05T20:11:33.235Z,41.17
2018-09-05T20:14:02.534Z,45.40
2018-09-05T20:16:31.946Z,27.87
2018-09-05T20:19:01.273Z,29.27
2018-09-05T20:21:30.554Z,27.87
2018-09-05T20:23:59.822Z,24.00
2018-09-05T20:26:29.356Z,27.40
2018-09-05T20:29:00.443Z,29.17
2018-09-05T20:31:29.670Z,22.60
2018-09-05T20:33:59.008Z,30.57
2018-09-05T20:36:28.255Z,24.30
2018-09-05T20:38:57.502Z,25.50
2018-09-05T20:41:27.047Z,24.25
2018-09-05T20:43:56.326Z,26.40
2018-09-05T20:46:25.533Z,25.43
2018-09-05T20:48:54.794Z,27.73
2018-09-05T20:51:24.048Z,32.63
2018-09-05T20:53:53.313Z,30.77
2018-09-05T20:56:22.579Z,30.80
2018-09-05T20:58:51.878Z,34.13
2018-09-05T21:01:21.193Z,27.10
2018-09-05T21:03:50.774Z,29.63
2018-09-05T21:06:20.232Z,27.60
2018-09-05T21:08:49.442Z,23.90
2018-09-05T21:11:18.789Z,29.23
2018-09-05T21:13:48.530Z,30.13
2018-09-05T21:16:17.994Z,30.10
2018-09-05T21:18:47.240Z,38.57
2018-09-05T21:21:16.986Z,34.03
2018-09-05T21:23:46.327Z,30.30
2018-09-05T21:26:15.552Z,29.33
2018-09-05T21:28:44.809Z,31.57
2018-09-05T21:31:14.085Z,28.97
2018-09-05T21:33:43.404Z,32.00
2018-09-05T21:36:12.720Z,33.23
2018-09-05T21:38:42.003Z,37.27
2018-09-05T21:41:12.051Z,30.08
2018-09-05T21:43:41.286Z,27.20
2018-09-05T21:46:10.508Z,31.85
2018-09-05T21:48:40.106Z,34.53
2018-09-05T21:51:09.481Z,33.97
2018-09-05T21:53:38.745Z,33.87
2018-09-05T21:56:08.271Z,27.58
2018-09-05T21:58:37.565Z,33.30
2018-09-05T22:01:07.013Z,29.70
2018-09-05T22:03:36.577Z,36.77
2018-09-05T22:06:06.290Z,54.60
2018-09-05T22:08:35.530Z,59.20
2018-09-05T22:11:10.121Z,53.10
2018-09-05T22:13:39.426Z,50.27
2018-09-05T22:16:08.640Z,42.50
2018-09-05T22:18:37.942Z,35.10
2018-09-05T22:21:07.373Z,35.63
2018-09-05T22:23:36.647Z,32.43
2018-09-05T22:26:05.883Z,41.00
2018-09-05T22:28:35.820Z,30.83
2018-09-05T22:31:05.083Z,34.53
2018-09-05T22:33:35.155Z,32.10
2018-09-05T22:36:04.771Z,32.33
2018-09-05T22:38:34.402Z,27.30
2018-09-05T22:41:03.869Z,29.83
2018-09-05T22:44:45.588Z,32.73
2018-09-05T22:47:26.033Z,36.33
2018-09-05T22:51:11.057Z,25.03
2018-09-05T22:56:00.502Z,27.03
2018-09-05T22:58:43.030Z,34.93
2018-09-05T23:01:23.544Z,35.90
2018-09-05T23:04:06.938Z,31.37
2018-09-05T23:07:46.645Z,34.40
2018-09-05T23:10:26.791Z,29.83
2018-09-05T23:13:07.243Z,35.00
2018-09-05T23:15:47.649Z,30.90
2018-09-05T23:18:33.686Z,39.13
2018-09-05T23:21:15.190Z,38.67
2018-09-05T23:23:54.121Z,31.57
2018-09-05T23:26:23.524Z,34.77
2018-09-05T23:28:52.775Z,35.47
2018-09-05T23:31:22.679Z,31.47
2018-09-05T23:33:52.081Z,31.03
2018-09-05T23:36:21.960Z,34.10
2018-09-05T23:38:51.554Z,25.23
2018-09-05T23:41:20.888Z,30.25
2018-09-05T23:43:50.151Z,33.43
2018-09-05T23:46:19.377Z,27.00
2018-09-05T23:48:48.707Z,27.83
2018-09-05T23:51:17.942Z,26.97
2018-09-05T23:53:47.228Z,28.07
2018-09-05T23:56:16.561Z,34.43
2018-09-05T23:58:45.759Z,38.07
